Time;durP1;ratioP1;P1;durP2;ratioP2;P2;SDS_P1;SDS_P2;PMS_P1;PMS_P2;Temp;Humidity;BMP_temperature;BMP_pressure;BME280_temperature;BME280_humidity;BME280_pressure;Samples;Min_cycle;Max_cycle;Signal;HPM_P1;HPM_P2
2021/10/27 00:01:22;;;;;;;13.30;4.00;;;;;;;;;;4996911;28;20384;-76
2021/10/27 00:03:50;;;;;;;14.45;3.90;;;;;;;;;;4996268;28;20054;-79
2021/10/27 00:06:21;;;;;;;8.55;3.50;;;;;;;;;;4979146;28;20439;-79
2021/10/27 00:08:49;;;;;;;10.45;3.50;;;;;;;;;;4979134;28;20069;-79
2021/10/27 00:11:18;;;;;;;13.45;3.65;;;;;;;;;;4979107;28;20053;-76
2021/10/27 00:13:46;;;;;;;13.38;4.10;;;;;;;;;;4996764;28;20043;-74
2021/10/27 00:16:14;;;;;;;11.88;3.95;;;;;;;;;;4979653;28;20034;-76
2021/10/27 00:18:41;;;;;;;12.10;3.45;;;;;;;;;;4996704;28;20058;-76
2021/10/27 00:21:11;;;;;;;19.30;5.38;;;;;;;;;;4996319;28;20046;-74
2021/10/27 00:23:38;;;;;;;12.35;3.33;;;;;;;;;;4976322;28;20418;-80
2021/10/27 00:26:06;;;;;;;11.10;3.60;;;;;;;;;;4992442;28;20400;-80
2021/10/27 00:28:34;;;;;;;12.05;3.55;;;;;;;;;;4994301;28;20046;-73
2021/10/27 00:31:01;;;;;;;14.55;3.40;;;;;;;;;;4978025;28;20603;-76
2021/10/27 00:33:30;;;;;;;18.85;4.13;;;;;;;;;;4995962;28;20050;-77
2021/10/27 00:35:59;;;;;;;10.68;3.60;;;;;;;;;;4979035;28;20058;-74
2021/10/27 00:38:26;;;;;;;13.68;4.47;;;;;;;;;;4995632;28;20105;-76
2021/10/27 00:40:54;;;;;;;10.65;3.35;;;;;;;;;;4995728;28;20110;-74
2021/10/27 00:43:24;;;;;;;14.63;3.55;;;;;;;;;;4995819;28;20047;-76
2021/10/27 00:45:52;;;;;;;9.55;3.40;;;;;;;;;;4995854;28;20396;-79
2021/10/27 00:48:20;;;;;;;12.38;3.58;;;;;;;;;;4995941;28;20407;-74
2021/10/27 00:50:48;;;;;;;15.10;3.88;;;;;;;;;;4996084;28;20046;-73
2021/10/27 00:53:16;;;;;;;14.35;3.70;;;;;;;;;;4995391;28;20078;-73
2021/10/27 00:55:45;;;;;;;7.18;3.50;;;;;;;;;;4995775;28;20046;-76
2021/10/27 00:58:16;;;;;;;14.98;4.00;;;;;;;;;;4979087;28;20491;-71
2021/10/27 01:00:46;;;;;;;12.57;3.60;;;;;;;;;;4978610;28;20624;-71
2021/10/27 01:03:14;;;;;;;7.95;3.60;;;;;;;;;;4995671;28;20101;-73
2021/10/27 01:05:41;;;;;;;9.77;3.80;;;;;;;;;;4977958;28;20053;-71
2021/10/27 01:08:09;;;;;;;15.95;3.85;;;;;;;;;;4995121;28;20046;-71
2021/10/27 01:10:36;;;;;;;17.58;4.03;;;;;;;;;;4995870;28;20054;-78
2021/10/27 01:13:04;;;;;;;10.57;3.58;;;;;;;;;;4977948;28;20369;-73
2021/10/27 01:15:41;;;;;;;10.13;3.50;;;;;;;;;;4995551;28;20050;-73
2021/10/27 01:18:09;;;;;;;13.13;4.38;;;;;;;;;;4995473;28;20498;-73
2021/10/27 01:20:36;;;;;;;15.18;4.22;;;;;;;;;;4995710;28;20038;-72
2021/10/27 01:23:06;;;;;;;8.80;3.42;;;;;;;;;;4994868;28;20066;-71
2021/10/27 01:25:33;;;;;;;10.90;3.75;;;;;;;;;;4994952;28;20468;-78
2021/10/27 01:28:01;;;;;;;8.77;3.42;;;;;;;;;;4995148;28;20054;-78
2021/10/27 01:30:29;;;;;;;9.45;3.83;;;;;;;;;;4995283;28;20046;-73
2021/10/27 01:32:57;;;;;;;17.15;4.25;;;;;;;;;;4977859;28;20054;-71
2021/10/27 01:35:25;;;;;;;10.18;3.53;;;;;;;;;;4977534;28;20077;-71
2021/10/27 01:37:53;;;;;;;8.40;3.80;;;;;;;;;;4977347;28;20049;-71
2021/10/27 01:40:21;;;;;;;8.35;3.58;;;;;;;;;;4994696;28;20035;-77
2021/10/27 01:42:53;;;;;;;14.05;3.53;;;;;;;;;;4977734;28;20124;-74
2021/10/27 01:45:27;;;;;;;11.48;3.78;;;;;;;;;;4977674;28;20133;-73
2021/10/27 01:47:55;;;;;;;12.32;3.58;;;;;;;;;;4994764;28;20053;-71
2021/10/27 01:50:23;;;;;;;11.07;3.70;;;;;;;;;;4994698;28;20038;-78
2021/10/27 01:52:51;;;;;;;16.40;4.35;;;;;;;;;;4995047;28;20379;-73
2021/10/27 01:55:19;;;;;;;13.95;4.15;;;;;;;;;;4994246;28;20115;-76
2021/10/27 01:57:49;;;;;;;9.80;3.88;;;;;;;;;;4995069;28;20046;-71
2021/10/27 02:00:21;;;;;;;12.23;4.20;;;;;;;;;;4995346;28;20052;-72
2021/10/27 02:02:51;;;;;;;13.93;4.55;;;;;;;;;;4994152;28;20100;-77
2021/10/27 02:05:18;;;;;;;15.43;4.10;;;;;;;;;;4994259;28;20114;-71
2021/10/27 02:07:46;;;;;;;20.23;4.60;;;;;;;;;;4994341;28;20049;-71
2021/10/27 02:10:14;;;;;;;10.68;3.88;;;;;;;;;;4994086;28;20053;-73
2021/10/27 02:12:42;;;;;;;10.20;4.25;;;;;;;;;;4977186;28;20050;-76
2021/10/27 02:15:10;;;;;;;14.18;3.90;;;;;;;;;;4977298;28;20038;-76
2021/10/27 02:17:38;;;;;;;15.02;4.40;;;;;;;;;;4976808;28;20043;-71
2021/10/27 02:20:08;;;;;;;19.13;4.70;;;;;;;;;;4994049;28;20070;-74
2021/10/27 02:22:36;;;;;;;11.07;4.28;;;;;;;;;;4993770;28;20042;-78
2021/10/27 02:25:04;;;;;;;13.13;4.40;;;;;;;;;;4993984;28;20129;-71
2021/10/27 02:27:32;;;;;;;18.60;4.80;;;;;;;;;;4994074;28;20052;-71
2021/10/27 02:30:00;;;;;;;13.50;4.28;;;;;;;;;;4994045;28;20046;-74
2021/10/27 02:32:28;;;;;;;18.55;4.90;;;;;;;;;;4993897;28;20137;-77
2021/10/27 02:34:55;;;;;;;15.27;4.50;;;;;;;;;;4976219;28;20038;-71
2021/10/27 02:37:23;;;;;;;12.27;4.10;;;;;;;;;;4976532;28;20467;-74
2021/10/27 02:39:52;;;;;;;13.07;4.45;;;;;;;;;;4960796;28;20042;-74
2021/10/27 02:42:20;;;;;;;12.65;4.03;;;;;;;;;;4976598;28;20491;-77
2021/10/27 02:44:48;;;;;;;11.63;4.10;;;;;;;;;;4993646;28;20066;-80
2021/10/27 02:47:19;;;;;;;15.20;3.97;;;;;;;;;;4993832;28;20057;-74
2021/10/27 02:49:49;;;;;;;11.27;3.83;;;;;;;;;;4975965;28;20046;-74
2021/10/27 02:52:17;;;;;;;14.77;5.20;;;;;;;;;;4992743;28;20386;-78
2021/10/27 02:54:44;;;;;;;12.88;3.78;;;;;;;;;;4994072;28;20044;-78
2021/10/27 02:57:11;;;;;;;11.70;3.45;;;;;;;;;;4994117;28;20069;-74
2021/10/27 02:59:40;;;;;;;7.80;3.58;;;;;;;;;;4976470;28;20042;-71
2021/10/27 03:02:08;;;;;;;6.68;3.60;;;;;;;;;;4993546;28;20045;-74
2021/10/27 03:04:36;;;;;;;13.68;3.80;;;;;;;;;;4976261;28;20459;-74
2021/10/27 03:07:05;;;;;;;12.73;3.72;;;;;;;;;;4993382;28;20788;-74
2021/10/27 03:09:33;;;;;;;15.77;3.85;;;;;;;;;;4993586;28;20050;-78
2021/10/27 03:12:02;;;;;;;10.35;3.20;;;;;;;;;;4993759;28;20141;-74
2021/10/27 03:14:30;;;;;;;7.82;3.17;;;;;;;;;;4993574;28;20051;-78
2021/10/27 03:16:57;;;;;;;8.13;3.50;;;;;;;;;;4993833;28;20131;-74
2021/10/27 03:19:25;;;;;;;9.98;3.28;;;;;;;;;;4993247;28;20120;-71
2021/10/27 03:21:53;;;;;;;9.98;3.40;;;;;;;;;;4993528;28;20053;-74
2021/10/27 03:24:21;;;;;;;13.40;3.72;;;;;;;;;;4993348;28;20048;-72
2021/10/27 03:26:49;;;;;;;9.18;3.15;;;;;;;;;;4993265;28;20129;-80
2021/10/27 03:29:19;;;;;;;7.35;3.50;;;;;;;;;;4993355;28;20411;-72
2021/10/27 03:31:51;;;;;;;10.63;3.42;;;;;;;;;;4992881;28;20093;-72
2021/10/27 03:34:19;;;;;;;13.02;3.53;;;;;;;;;;4993281;28;20476;-72
2021/10/27 03:36:46;;;;;;;12.98;3.45;;;;;;;;;;4976158;28;20039;-74
2021/10/27 03:39:14;;;;;;;13.85;3.78;;;;;;;;;;4976027;28;20424;-78
2021/10/27 03:41:42;;;;;;;12.60;4.20;;;;;;;;;;4993376;28;20043;-71
2021/10/27 03:44:09;;;;;;;10.25;3.78;;;;;;;;;;4993236;28;20042;-72
2021/10/27 03:46:36;;;;;;;14.98;3.50;;;;;;;;;;4992915;28;20038;-74
2021/10/27 03:49:08;;;;;;;11.60;3.95;;;;;;;;;;4975631;28;20069;-72
2021/10/27 03:51:38;;;;;;;10.77;4.00;;;;;;;;;;4993443;28;20057;-78
2021/10/27 03:54:08;;;;;;;10.82;3.75;;;;;;;;;;4993275;28;20141;-71
2021/10/27 03:56:36;;;;;;;8.20;3.42;;;;;;;;;;4993595;28;20518;-74
2021/10/27 03:59:04;;;;;;;14.23;3.25;;;;;;;;;;4993652;28;20387;-78
2021/10/27 04:01:32;;;;;;;9.48;3.58;;;;;;;;;;4975005;28;20134;-74
2021/10/27 04:04:00;;;;;;;13.45;3.20;;;;;;;;;;4995771;28;20464;-71
2021/10/27 04:06:27;;;;;;;10.95;3.53;;;;;;;;;;4996542;28;20521;-75
2021/10/27 04:08:55;;;;;;;12.70;3.60;;;;;;;;;;4996701;28;20069;-78
2021/10/27 04:11:24;;;;;;;10.38;3.22;;;;;;;;;;4979121;28;20423;-71
2021/10/27 04:13:51;;;;;;;10.57;3.92;;;;;;;;;;4996655;28;20053;-78
2021/10/27 04:16:22;;;;;;;15.38;3.83;;;;;;;;;;4995826;28;20038;-74
2021/10/27 04:18:52;;;;;;;8.88;3.15;;;;;;;;;;4996417;28;20045;-78
2021/10/27 04:21:19;;;;;;;18.30;3.70;;;;;;;;;;4996748;28;20049;-74
2021/10/27 04:23:47;;;;;;;9.35;3.28;;;;;;;;;;4996373;28;20051;-70
2021/10/27 04:26:15;;;;;;;12.90;3.75;;;;;;;;;;4996318;28;20054;-72
2021/10/27 04:28:45;;;;;;;11.07;3.45;;;;;;;;;;4996519;28;20046;-72
2021/10/27 04:31:13;;;;;;;10.25;3.90;;;;;;;;;;4995710;28;20052;-72
2021/10/27 04:33:41;;;;;;;9.68;3.20;;;;;;;;;;4996131;28;20141;-74
2021/10/27 04:36:09;;;;;;;9.13;3.85;;;;;;;;;;4996292;28;20396;-74
2021/10/27 04:38:37;;;;;;;13.10;3.70;;;;;;;;;;4979342;28;20038;-74
2021/10/27 04:41:05;;;;;;;13.27;3.60;;;;;;;;;;4978467;28;20142;-71
2021/10/27 04:43:33;;;;;;;10.15;3.53;;;;;;;;;;4996029;28;20042;-76
2021/10/27 04:46:01;;;;;;;13.15;3.60;;;;;;;;;;4978502;28;20069;-76
2021/10/27 04:48:30;;;;;;;11.25;3.55;;;;;;;;;;4995898;28;20070;-72
2021/10/27 04:50:57;;;;;;;12.90;3.33;;;;;;;;;;4995978;28;20046;-71
2021/10/27 04:53:25;;;;;;;13.85;3.83;;;;;;;;;;4995776;28;20145;-72
2021/10/27 04:55:53;;;;;;;16.55;3.67;;;;;;;;;;4995818;28;20042;-72
2021/10/27 04:58:23;;;;;;;11.45;3.55;;;;;;;;;;4996208;28;20072;-72
2021/10/27 05:00:50;;;;;;;13.85;3.85;;;;;;;;;;4977973;28;20043;-71
2021/10/27 05:03:18;;;;;;;11.73;3.65;;;;;;;;;;4995731;28;20038;-71
2021/10/27 05:05:52;;;;;;;13.30;3.60;;;;;;;;;;4995413;28;20050;-74
2021/10/27 05:08:22;;;;;;;11.18;3.50;;;;;;;;;;4995610;28;20492;-80
2021/10/27 05:10:51;;;;;;;12.40;3.55;;;;;;;;;;4995651;28;20129;-74
2021/10/27 05:13:25;;;;;;;19.40;4.25;;;;;;;;;;4995501;28;20050;-76
2021/10/27 05:15:53;;;;;;;12.35;3.38;;;;;;;;;;4994604;28;20506;-73
2021/10/27 05:18:25;;;;;;;14.37;3.63;;;;;;;;;;4989945;28;20459;-79
2021/10/27 05:20:56;;;;;;;12.00;3.80;;;;;;;;;;4990856;28;20284;-71
2021/10/27 05:23:25;;;;;;;17.02;4.30;;;;;;;;;;4995022;28;20045;-74
2021/10/27 05:25:53;;;;;;;12.68;3.95;;;;;;;;;;4995229;28;20089;-79
2021/10/27 05:28:22;;;;;;;14.73;3.40;;;;;;;;;;4995193;28;20050;-76
2021/10/27 05:30:50;;;;;;;12.73;3.85;;;;;;;;;;4995178;28;20039;-81
2021/10/27 05:33:18;;;;;;;11.75;3.42;;;;;;;;;;4995221;28;20042;-77
2021/10/27 05:35:45;;;;;;;17.00;3.70;;;;;;;;;;4995339;28;20034;-80
2021/10/27 05:38:17;;;;;;;13.98;4.20;;;;;;;;;;4978804;28;20045;-73
2021/10/27 05:40:47;;;;;;;15.77;3.92;;;;;;;;;;4977842;28;20070;-73
2021/10/27 05:43:15;;;;;;;19.38;3.78;;;;;;;;;;4977620;28;20054;-81
2021/10/27 05:45:44;;;;;;;11.30;3.55;;;;;;;;;;4961361;28;20068;-80
2021/10/27 05:48:16;;;;;;;11.93;3.50;;;;;;;;;;4978094;28;20042;-76
2021/10/27 05:50:57;;;;;;;9.38;3.38;;;;;;;;;;4995046;28;20093;-76
2021/10/27 05:56:13;;;;;;;11.43;3.35;;;;;;;;;;4994949;28;20387;-79
2021/10/27 05:58:43;;;;;;;12.50;4.40;;;;;;;;;;4994855;28;20042;-73
2021/10/27 06:01:14;;;;;;;13.43;4.03;;;;;;;;;;4976054;28;20499;-80
2021/10/27 06:03:42;;;;;;;12.27;4.30;;;;;;;;;;4994396;28;20042;-79
2021/10/27 06:06:14;;;;;;;14.60;3.75;;;;;;;;;;4994599;28;20050;-78
2021/10/27 06:08:42;;;;;;;11.98;3.10;;;;;;;;;;4961165;28;20047;-74
2021/10/27 06:11:13;;;;;;;11.10;3.22;;;;;;;;;;4994515;28;20145;-85
2021/10/27 06:13:46;;;;;;;11.07;3.58;;;;;;;;;;4994461;28;20058;-74
2021/10/27 06:16:15;;;;;;;11.63;3.38;;;;;;;;;;4994310;28;20521;-86
2021/10/27 06:18:46;;;;;;;9.35;2.70;;;;;;;;;;4991190;28;20496;-84
2021/10/27 06:21:16;;;;;;;16.30;3.40;;;;;;;;;;4962563;28;20066;-73
2021/10/27 06:23:45;;;;;;;11.52;3.30;;;;;;;;;;4955112;28;20105;-79
2021/10/27 06:26:13;;;;;;;9.82;3.45;;;;;;;;;;4976202;28;20058;-85
2021/10/27 06:28:55;;;;;;;12.68;3.13;;;;;;;;;;4992570;28;20053;-74
2021/10/27 06:31:40;;;;;;;12.77;3.67;;;;;;;;;;4992977;28;20049;-73
2021/10/27 06:37:12;;;;;;;8.85;3.47;;;;;;;;;;4992328;28;20038;-74
2021/10/27 06:48:00;;;;;;;10.77;3.67;;;;;;;;;;4993348;28;20046;-73
2021/10/27 06:50:27;;;;;;;7.68;3.25;;;;;;;;;;4992196;28;20042;-79
2021/10/27 06:52:55;;;;;;;10.75;4.25;;;;;;;;;;4993074;28;20500;-84
2021/10/27 06:55:24;;;;;;;11.55;3.42;;;;;;;;;;4992372;28;20042;-73
2021/10/27 06:57:54;;;;;;;8.70;2.95;;;;;;;;;;4993923;28;20541;-84
2021/10/27 07:00:34;;;;;;;17.15;3.75;;;;;;;;;;4994058;28;20035;-82
2021/10/27 07:06:13;;;;;;;16.05;3.78;;;;;;;;;;4992769;28;20133;-85
2021/10/27 07:16:45;;;;;;;9.35;3.80;;;;;;;;;;4992341;28;20060;-84
2021/10/27 07:19:12;;;;;;;19.15;4.45;;;;;;;;;;4993322;28;20034;-73
2021/10/27 07:21:40;;;;;;;14.93;4.35;;;;;;;;;;4993485;28;20046;-78
2021/10/27 07:24:09;;;;;;;23.15;4.30;;;;;;;;;;4992516;28;20046;-76
2021/10/27 07:26:38;;;;;;;11.88;4.38;;;;;;;;;;4993272;28;20054;-86
2021/10/27 07:29:05;;;;;;;9.70;3.83;;;;;;;;;;4956441;28;20092;-78
2021/10/27 07:31:34;;;;;;;12.52;4.00;;;;;;;;;;4954478;28;20059;-74
2021/10/27 07:34:11;;;;;;;11.70;3.42;;;;;;;;;;4955615;28;20121;-74
2021/10/27 07:42:14;;;;;;;13.93;3.88;;;;;;;;;;4976284;28;20078;-78
2021/10/27 07:44:45;;;;;;;16.75;5.82;;;;;;;;;;4983062;28;20042;-79
2021/10/27 07:47:16;;;;;;;17.85;3.75;;;;;;;;;;4995106;28;20069;-73
2021/10/27 07:49:44;;;;;;;9.07;3.50;;;;;;;;;;4994991;28;20503;-73
2021/10/27 07:52:12;;;;;;;9.80;3.60;;;;;;;;;;4976588;28;20061;-73
2021/10/27 07:54:42;;;;;;;10.80;3.60;;;;;;;;;;4991770;28;20046;-73
2021/10/27 07:57:10;;;;;;;14.15;3.92;;;;;;;;;;4978314;28;20057;-73
2021/10/27 07:59:39;;;;;;;12.18;3.58;;;;;;;;;;4994476;28;20113;-73
2021/10/27 08:02:07;;;;;;;12.98;4.20;;;;;;;;;;4994662;28;20096;-73
2021/10/27 08:04:39;;;;;;;13.13;3.60;;;;;;;;;;4977129;28;20600;-73
2021/10/27 08:07:06;;;;;;;13.07;3.85;;;;;;;;;;4994654;28;20050;-79
2021/10/27 08:09:35;;;;;;;18.60;3.95;;;;;;;;;;4977120;28;20507;-74
2021/10/27 08:12:03;;;;;;;13.93;3.67;;;;;;;;;;4977610;28;20046;-85
2021/10/27 08:14:30;;;;;;;12.27;3.20;;;;;;;;;;4994694;28;20407;-85
2021/10/27 08:17:17;;;;;;;10.93;4.07;;;;;;;;;;4994731;28;20054;-84
2021/10/27 08:19:48;;;;;;;9.80;3.45;;;;;;;;;;4994599;28;20046;-84
2021/10/27 08:22:16;;;;;;;12.40;3.80;;;;;;;;;;4994890;28;20046;-85
2021/10/27 08:24:48;;;;;;;11.60;3.67;;;;;;;;;;4990601;23;20050;-73
2021/10/27 08:27:31;;;;;;;13.90;3.75;;;;;;;;;;4971373;28;20134;-73
2021/10/27 08:30:04;;;;;;;13.88;3.45;;;;;;;;;;4956169;28;20134;-77
2021/10/27 08:32:53;;;;;;;10.55;3.25;;;;;;;;;;4957515;28;20047;-75
2021/10/27 08:35:21;;;;;;;12.32;3.65;;;;;;;;;;4962028;28;20043;-78
2021/10/27 08:37:50;;;;;;;13.52;3.70;;;;;;;;;;4941226;28;20070;-74
2021/10/27 08:40:22;;;;;;;12.30;3.45;;;;;;;;;;4957703;28;20054;-77
2021/10/27 08:42:50;;;;;;;12.20;4.03;;;;;;;;;;4942167;28;20046;-75
2021/10/27 08:45:18;;;;;;;13.27;3.65;;;;;;;;;;4973936;28;20070;-77
2021/10/27 08:47:50;;;;;;;11.90;3.55;;;;;;;;;;4955079;28;20141;-76
2021/10/27 08:50:25;;;;;;;11.77;3.30;;;;;;;;;;4953605;28;20523;-75
2021/10/27 08:52:52;;;;;;;6.65;3.03;;;;;;;;;;4954384;28;20419;-76
2021/10/27 08:55:22;;;;;;;10.50;3.08;;;;;;;;;;4952608;28;20419;-76
2021/10/27 08:57:51;;;;;;;12.02;3.17;;;;;;;;;;4974547;28;20053;-76
2021/10/27 10:06:57;;;;;;;11.90;3.70;;;;;;;;;;4972979;28;20042;-75
2021/10/27 10:09:27;;;;;;;15.85;3.75;;;;;;;;;;4973871;28;20043;-78
2021/10/27 10:11:55;;;;;;;16.85;4.03;;;;;;;;;;4940340;28;20595;-76
2021/10/27 10:14:23;;;;;;;10.82;3.35;;;;;;;;;;4972651;28;20047;-75
2021/10/27 10:16:52;;;;;;;15.65;4.03;;;;;;;;;;4971882;28;20055;-76
2021/10/27 10:19:22;;;;;;;11.70;4.00;;;;;;;;;;4972889;28;20569;-76
2021/10/27 10:21:53;;;;;;;12.00;3.83;;;;;;;;;;4955379;28;20086;-79
2021/10/27 10:24:25;;;;;;;11.70;3.90;;;;;;;;;;4940947;28;20495;-75
2021/10/27 10:26:54;;;;;;;9.97;3.60;;;;;;;;;;4973007;28;20412;-75
2021/10/27 10:32:22;;;;;;;12.23;3.78;;;;;;;;;;4972126;28;20050;-78
2021/10/27 10:34:53;;;;;;;10.18;3.60;;;;;;;;;;4973030;28;20058;-79
2021/10/27 10:37:28;;;;;;;14.50;4.07;;;;;;;;;;4972479;28;20495;-76
2021/10/27 10:39:58;;;;;;;11.43;4.07;;;;;;;;;;4973026;28;20051;-77
2021/10/27 10:42:53;;;;;;;11.40;3.80;;;;;;;;;;4957173;28;20055;-76
2021/10/27 11:39:09;;;;;;;12.85;3.70;;;;;;;;;;4953967;29;20067;-79
2021/10/27 11:41:46;;;;;;;12.52;3.47;;;;;;;;;;4957301;28;20153;-82
2021/10/27 11:44:31;;;;;;;7.95;3.33;;;;;;;;;;4937701;29;20051;-79
2021/10/27 11:47:02;;;;;;;9.48;3.15;;;;;;;;;;4941508;29;20122;-81
2021/10/27 11:49:39;;;;;;;11.65;4.00;;;;;;;;;;4951549;29;20086;-79
2021/10/27 11:52:07;;;;;;;10.20;3.78;;;;;;;;;;4955827;29;20126;-82
2021/10/27 11:54:35;;;;;;;14.57;3.88;;;;;;;;;;4955834;29;20043;-82
2021/10/27 11:57:04;;;;;;;10.20;3.50;;;;;;;;;;4958453;28;20069;-79
2021/10/27 11:59:44;;;;;;;11.50;3.53;;;;;;;;;;4952893;29;20050;-82
2021/10/27 12:02:11;;;;;;;14.57;3.97;;;;;;;;;;4954441;28;20043;-82
2021/10/27 12:04:40;;;;;;;8.88;3.53;;;;;;;;;;4954236;28;20122;-82
2021/10/27 12:07:19;;;;;;;8.23;3.60;;;;;;;;;;4954233;29;20074;-79
2021/10/27 12:10:10;;;;;;;8.57;3.65;;;;;;;;;;4957489;28;20122;-79
2021/10/27 12:12:54;;;;;;;14.50;3.95;;;;;;;;;;4953730;28;20184;-79
2021/10/27 12:18:17;;;;;;;8.10;3.38;;;;;;;;;;4954189;28;20445;-78
2021/10/27 12:20:46;;;;;;;11.70;4.03;;;;;;;;;;4953859;29;20038;-79
2021/10/27 12:23:18;;;;;;;8.20;3.45;;;;;;;;;;4952726;28;20035;-83
2021/10/27 12:25:47;;;;;;;6.50;3.22;;;;;;;;;;4956881;29;20602;-78
2021/10/27 12:28:34;;;;;;;13.32;3.67;;;;;;;;;;4980516;28;20062;-83
2021/10/27 12:31:20;;;;;;;11.27;3.63;;;;;;;;;;4987848;28;20038;-80
2021/10/27 12:33:51;;;;;;;18.38;4.00;;;;;;;;;;4990182;28;20034;-78
2021/10/27 12:36:31;;;;;;;11.45;3.45;;;;;;;;;;4985173;28;20121;-79
2021/10/27 12:39:06;;;;;;;9.05;3.20;;;;;;;;;;4985489;28;20113;-82
2021/10/27 12:41:35;;;;;;;11.63;3.50;;;;;;;;;;4977698;28;20055;-80
2021/10/27 12:44:22;;;;;;;9.38;3.40;;;;;;;;;;4969954;28;20051;-80
2021/10/27 12:47:05;;;;;;;11.35;4.00;;;;;;;;;;4973002;28;20129;-78
2021/10/27 12:49:32;;;;;;;7.32;3.45;;;;;;;;;;4969258;28;20486;-79
2021/10/27 12:52:24;;;;;;;9.48;3.70;;;;;;;;;;4967230;28;20491;-79
2021/10/27 12:55:07;;;;;;;12.35;3.78;;;;;;;;;;4992940;28;20070;-78
2021/10/27 12:57:57;;;;;;;11.70;3.50;;;;;;;;;;4973303;28;20117;-82
2021/10/27 13:05:59;;;;;;;12.07;4.00;;;;;;;;;;4995121;28;20081;-79
2021/10/27 13:32:18;;;;;;;12.38;3.97;;;;;;;;;;4984156;28;20122;-78
2021/10/27 13:34:47;;;;;;;9.35;3.70;;;;;;;;;;4978079;28;20069;-80
2021/10/27 13:37:18;;;;;;;11.48;3.50;;;;;;;;;;4994599;28;20046;-82
2021/10/27 13:39:48;;;;;;;8.73;3.60;;;;;;;;;;4957031;28;20407;-81
2021/10/27 13:42:26;;;;;;;17.00;4.40;;;;;;;;;;4966949;28;20039;-82
2021/10/27 13:58:34;;;;;;;9.70;3.67;;;;;;;;;;4954944;28;20043;-80
2021/10/27 14:07:00;;;;;;;13.48;3.92;;;;;;;;;;4956104;28;20474;-80
2021/10/27 14:09:35;;;;;;;10.52;3.78;;;;;;;;;;4956204;29;20066;-80
2021/10/27 14:48:11;;;;;;;10.10;4.10;;;;;;;;;;4973852;28;20118;-82
2021/10/27 15:21:11;;;;;;;10.65;3.63;;;;;;;;;;4951178;29;20086;-77
2021/10/27 15:40:22;;;;;;;12.85;4.10;;;;;;;;;;4932339;29;20062;-74
2021/10/27 15:51:03;;;;;;;10.43;4.03;;;;;;;;;;4965133;28;20175;-71
2021/10/27 15:53:31;;;;;;;10.82;4.13;;;;;;;;;;4951777;29;20047;-72
2021/10/27 15:56:02;;;;;;;11.38;3.75;;;;;;;;;;4933958;29;20075;-75
2021/10/27 15:58:30;;;;;;;12.27;4.45;;;;;;;;;;4951953;28;20048;-75
2021/10/27 16:01:03;;;;;;;13.90;4.00;;;;;;;;;;4938681;29;20051;-74
2021/10/27 16:03:31;;;;;;;12.90;3.70;;;;;;;;;;4938289;29;20168;-75
2021/10/27 16:05:59;;;;;;;12.95;4.47;;;;;;;;;;4938135;29;20047;-74
2021/10/27 16:08:30;;;;;;;14.45;3.95;;;;;;;;;;4963358;28;20045;-72
2021/10/27 16:10:57;;;;;;;17.15;4.35;;;;;;;;;;4974041;28;20035;-76
2021/10/27 16:13:26;;;;;;;7.53;3.60;;;;;;;;;;4974575;28;20054;-74
2021/10/27 16:15:58;;;;;;;17.40;4.40;;;;;;;;;;4975996;28;20051;-74
2021/10/27 16:18:26;;;;;;;19.08;4.43;;;;;;;;;;4975767;28;20043;-74
2021/10/27 16:20:56;;;;;;;9.75;3.97;;;;;;;;;;4975678;28;20053;-74
2021/10/27 16:23:25;;;;;;;11.00;3.90;;;;;;;;;;4976110;28;20046;-75
2021/10/27 16:25:54;;;;;;;10.25;4.18;;;;;;;;;;4975818;28;20050;-73
2021/10/27 16:28:25;;;;;;;8.55;3.95;;;;;;;;;;4976035;28;20051;-74
2021/10/27 16:30:54;;;;;;;16.05;4.53;;;;;;;;;;4974538;28;20447;-74
2021/10/27 16:33:22;;;;;;;14.10;4.28;;;;;;;;;;4975943;28;20148;-74
2021/10/27 16:35:50;;;;;;;16.20;4.35;;;;;;;;;;4975181;28;20042;-74
2021/10/27 16:38:18;;;;;;;12.63;4.32;;;;;;;;;;4990519;28;20114;-74
2021/10/27 16:40:46;;;;;;;19.92;4.60;;;;;;;;;;4973815;28;20097;-76
2021/10/27 16:43:14;;;;;;;18.67;4.55;;;;;;;;;;4975374;28;20043;-75
2021/10/27 16:45:42;;;;;;;12.10;3.97;;;;;;;;;;4975369;28;20043;-74
2021/10/27 16:48:10;;;;;;;15.65;4.32;;;;;;;;;;4975483;28;20047;-74
2021/10/27 16:50:38;;;;;;;16.15;4.63;;;;;;;;;;4976067;28;20043;-74
2021/10/27 16:53:06;;;;;;;9.63;3.78;;;;;;;;;;4975766;28;20047;-74
2021/10/27 16:55:35;;;;;;;10.63;3.88;;;;;;;;;;4957211;28;20062;-75
2021/10/27 16:58:04;;;;;;;12.27;3.70;;;;;;;;;;4975598;28;20126;-76
2021/10/27 17:00:33;;;;;;;17.33;5.10;;;;;;;;;;4957756;28;20455;-75
2021/10/27 17:03:00;;;;;;;13.32;4.20;;;;;;;;;;4975337;28;20046;-75
2021/10/27 17:05:28;;;;;;;13.13;4.70;;;;;;;;;;4975595;28;20493;-75
2021/10/27 17:07:56;;;;;;;9.15;3.60;;;;;;;;;;4975130;28;20172;-75
2021/10/27 17:10:23;;;;;;;12.82;4.20;;;;;;;;;;4974282;28;20101;-74
2021/10/27 17:12:52;;;;;;;12.15;3.95;;;;;;;;;;4957963;28;20051;-76
2021/10/27 17:15:20;;;;;;;11.15;3.70;;;;;;;;;;4958510;28;20049;-75
2021/10/27 17:17:49;;;;;;;9.38;3.88;;;;;;;;;;4975047;28;20053;-73
2021/10/27 17:20:18;;;;;;;16.13;4.50;;;;;;;;;;4975225;28;20545;-74
2021/10/27 17:22:47;;;;;;;14.82;4.47;;;;;;;;;;4975361;28;20415;-74
2021/10/27 17:25:16;;;;;;;15.43;4.22;;;;;;;;;;4957012;28;20570;-73
2021/10/27 17:27:46;;;;;;;10.10;3.67;;;;;;;;;;4957971;28;20043;-75
2021/10/27 17:30:17;;;;;;;10.23;3.38;;;;;;;;;;4975592;28;20516;-74
2021/10/27 17:32:46;;;;;;;16.30;5.10;;;;;;;;;;4975248;28;20099;-73
2021/10/27 17:35:19;;;;;;;13.23;4.43;;;;;;;;;;4974706;28;20049;-76
2021/10/27 17:37:51;;;;;;;12.10;3.65;;;;;;;;;;4974794;28;20066;-74
2021/10/27 17:40:37;;;;;;;16.63;4.40;;;;;;;;;;4980423;28;20035;-75
2021/10/27 17:43:05;;;;;;;8.63;3.55;;;;;;;;;;4962898;28;20118;-76
2021/10/27 17:45:40;;;;;;;8.73;3.53;;;;;;;;;;4982267;28;20512;-73
2021/10/27 17:48:13;;;;;;;14.75;3.88;;;;;;;;;;4942446;28;20043;-75
2021/10/27 17:50:57;;;;;;;18.77;4.85;;;;;;;;;;4954299;28;20077;-74
2021/10/27 17:58:43;;;;;;;8.50;3.90;;;;;;;;;;4972479;28;20054;-74
2021/10/27 18:01:12;;;;;;;15.93;3.88;;;;;;;;;;4972673;28;20039;-75
2021/10/27 18:03:43;;;;;;;10.70;3.83;;;;;;;;;;4972567;28;20050;-76
2021/10/27 18:06:12;;;;;;;12.95;4.20;;;;;;;;;;4972852;28;20043;-77
2021/10/27 18:08:41;;;;;;;11.88;3.70;;;;;;;;;;4972329;28;20476;-74
2021/10/27 18:11:13;;;;;;;12.88;4.85;;;;;;;;;;4972436;28;20042;-74
2021/10/27 18:14:24;;;;;;;14.57;4.53;;;;;;;;;;4972620;28;20050;-73
2021/10/27 18:24:27;;;;;;;13.55;4.18;;;;;;;;;;4969510;28;20042;-74
2021/10/27 18:38:15;;;;;;;11.95;4.38;;;;;;;;;;4972187;28;20133;-74
2021/10/27 18:40:55;;;;;;;13.13;5.32;;;;;;;;;;4988953;28;20430;-74
2021/10/27 18:43:29;;;;;;;11.57;4.28;;;;;;;;;;4977029;28;20066;-74
2021/10/27 18:46:00;;;;;;;12.02;4.05;;;;;;;;;;4954420;28;20046;-74
2021/10/27 18:48:28;;;;;;;7.63;4.40;;;;;;;;;;4965246;28;20129;-74
2021/10/27 18:51:06;;;;;;;15.13;4.13;;;;;;;;;;4954637;28;20072;-75
2021/10/27 18:56:38;;;;;;;14.43;4.43;;;;;;;;;;4969264;28;20141;-73
2021/10/27 19:12:46;;;;;;;12.00;4.22;;;;;;;;;;4940150;29;20054;-74
2021/10/27 19:18:02;;;;;;;15.10;4.50;;;;;;;;;;4954118;29;20130;-74
2021/10/27 19:20:31;;;;;;;12.63;4.30;;;;;;;;;;4953729;29;20043;-74
2021/10/27 19:22:59;;;;;;;13.00;4.47;;;;;;;;;;4953961;29;20031;-74
2021/10/27 19:25:35;;;;;;;14.57;4.57;;;;;;;;;;4954188;29;20051;-73
2021/10/27 19:28:14;;;;;;;16.15;4.95;;;;;;;;;;4954457;29;20039;-74
2021/10/27 19:31:14;;;;;;;16.58;4.43;;;;;;;;;;4954249;29;20047;-74
2021/10/27 20:26:10;;;;;;;9.82;3.90;;;;;;;;;;4979341;23;20435;-73
2021/10/27 20:28:52;;;;;;;9.95;4.10;;;;;;;;;;4974002;28;20047;-75
2021/10/27 20:48:37;;;;;;;10.05;3.83;;;;;;;;;;4974261;28;20053;-75
2021/10/27 20:51:16;;;;;;;12.85;4.30;;;;;;;;;;4970544;28;20506;-74
2021/10/27 20:53:48;;;;;;;9.93;4.25;;;;;;;;;;4974007;28;20064;-73
2021/10/27 20:56:20;;;;;;;11.60;4.13;;;;;;;;;;4941236;28;20054;-73
2021/10/27 21:01:29;;;;;;;8.63;3.53;;;;;;;;;;4974154;28;20094;-74
2021/10/27 21:13:01;;;;;;;12.05;4.10;;;;;;;;;;4976045;28;20586;-74
2021/10/27 21:15:05;;;;;;;12.35;3.30;;;;;;;;;;4966483;28;20067;-75
2021/10/27 21:17:34;;;;;;;8.25;3.58;;;;;;;;;;4972868;28;20157;-75
2021/10/27 21:20:05;;;;;;;7.75;3.55;;;;;;;;;;4973271;28;20138;-75
2021/10/27 21:22:34;;;;;;;8.65;3.60;;;;;;;;;;4956048;28;20074;-75
2021/10/27 21:25:03;;;;;;;12.35;4.38;;;;;;;;;;4973339;28;20512;-76
2021/10/27 21:33:19;;;;;;;9.93;3.90;;;;;;;;;;4973322;28;20058;-75
2021/10/27 21:44:09;;;;;;;7.53;3.58;;;;;;;;;;4953630;29;20051;-74
2021/10/27 21:46:37;;;;;;;9.00;3.65;;;;;;;;;;4953728;29;20054;-75
2021/10/27 21:49:05;;;;;;;10.52;3.75;;;;;;;;;;4953537;29;20129;-75
2021/10/27 21:51:33;;;;;;;10.48;3.75;;;;;;;;;;4932750;29;20050;-75
2021/10/27 21:54:01;;;;;;;10.60;3.70;;;;;;;;;;4953464;29;20051;-74
2021/10/27 21:56:29;;;;;;;10.32;4.10;;;;;;;;;;4952851;28;20047;-73
2021/10/27 21:58:59;;;;;;;12.50;4.38;;;;;;;;;;4953540;29;20411;-73
2021/10/27 22:01:26;;;;;;;11.73;3.80;;;;;;;;;;4953237;29;20165;-75
2021/10/27 22:03:54;;;;;;;8.93;4.20;;;;;;;;;;4952705;29;20047;-73
2021/10/27 22:06:23;;;;;;;5.80;3.67;;;;;;;;;;4936524;29;20046;-73
2021/10/27 22:08:51;;;;;;;9.65;3.63;;;;;;;;;;4952923;29;20142;-75